createdAt,value
2022-09-27T00:00:51.733Z,10.08
2022-09-27T00:03:20.256Z,9.97
2022-09-27T00:05:48.512Z,9.91
2022-09-27T00:08:16.748Z,9.98
2022-09-27T00:10:44.996Z,10.03
2022-09-27T00:13:14.940Z,9.76
2022-09-27T00:15:43.201Z,9.76
2022-09-27T00:18:11.450Z,9.80
2022-09-27T00:20:40.155Z,9.65
2022-09-27T00:23:08.386Z,9.60
2022-09-27T00:25:36.628Z,9.59
2022-09-27T00:28:04.868Z,9.57
2022-09-27T00:30:34.509Z,9.58
2022-09-27T00:33:02.747Z,9.63
2022-09-27T00:35:30.984Z,9.67
2022-09-27T00:37:59.243Z,9.68
2022-09-27T00:40:27.506Z,9.78
2022-09-27T00:42:55.825Z,9.64
2022-09-27T00:45:24.211Z,9.51
2022-09-27T00:47:55.781Z,9.42
2022-09-27T00:50:27.645Z,9.44
2022-09-27T00:53:03.291Z,9.59
2022-09-27T00:55:34.698Z,9.55
2022-09-27T00:58:03.069Z,9.48
2022-09-27T01:00:31.722Z,9.35
2022-09-27T01:03:01.436Z,9.58
2022-09-27T01:05:30.082Z,9.47
2022-09-27T01:08:01.024Z,9.65
2022-09-27T01:10:30.666Z,9.75
2022-09-27T01:13:02.855Z,9.83
2022-09-27T01:15:34.448Z,9.51
2022-09-27T01:18:15.036Z,9.76
2022-09-27T01:21:12.036Z,9.78
2022-09-27T01:23:52.089Z,9.66
2022-09-27T01:26:28.023Z,9.83
2022-09-27T01:28:59.412Z,9.76
2022-09-27T01:31:32.069Z,9.83
2022-09-27T01:34:03.936Z,9.87
2022-09-27T01:36:37.609Z,9.85
2022-09-27T01:39:11.881Z,9.65
2022-09-27T01:41:43.436Z,9.65
2022-09-27T01:44:14.836Z,9.79
2022-09-27T01:46:46.563Z,9.88
2022-09-27T01:49:20.957Z,9.93
2022-09-27T01:51:50.093Z,9.86
2022-09-27T01:54:20.817Z,9.83
2022-09-27T01:56:50.465Z,9.96
2022-09-27T01:59:21.753Z,9.89
2022-09-27T02:01:52.386Z,9.86
2022-09-27T02:04:22.600Z,9.97
2022-09-27T02:06:53.536Z,9.79
2022-09-27T02:09:24.069Z,9.83
2022-09-27T02:11:56.520Z,9.87
2022-09-27T02:14:27.993Z,9.44
2022-09-27T02:17:00.203Z,9.69
2022-09-27T02:19:34.233Z,9.54
2022-09-27T02:22:08.400Z,9.54
2022-09-27T02:24:39.064Z,9.60
2022-09-27T02:27:10.989Z,9.55
2022-09-27T02:29:41.176Z,9.49
2022-09-27T02:32:10.817Z,9.33
2022-09-27T02:34:39.330Z,9.48
2022-09-27T02:37:07.714Z,9.37
2022-09-27T02:39:35.972Z,9.23
2022-09-27T02:42:04.280Z,9.49
2022-09-27T02:44:32.562Z,9.27
2022-09-27T02:47:14.848Z,9.36
2022-09-27T02:49:49.993Z,9.27
2022-09-27T02:52:23.270Z,9.45
2022-09-27T02:54:55.534Z,9.56
2022-09-27T02:57:29.815Z,9.54
2022-09-27T03:00:05.347Z,9.58
2022-09-27T03:02:38.645Z,9.59
2022-09-27T03:05:08.238Z,9.67
2022-09-27T03:07:38.645Z,9.72
2022-09-27T03:10:07.692Z,9.71
2022-09-27T03:12:35.946Z,9.73
2022-09-27T03:15:04.337Z,9.82
2022-09-27T03:17:32.606Z,9.71
2022-09-27T03:20:02.628Z,9.35
2022-09-27T03:22:30.907Z,9.49
2022-09-27T03:24:59.153Z,9.53
2022-09-27T03:27:27.427Z,9.67
2022-09-27T03:29:55.702Z,9.72
2022-09-27T03:32:24.265Z,9.59
2022-09-27T03:34:54.237Z,9.53
2022-09-27T03:37:24.058Z,9.45
2022-09-27T03:39:52.609Z,9.42
2022-09-27T03:42:20.851Z,9.49
2022-09-27T03:44:49.148Z,9.60
2022-09-27T03:47:17.395Z,9.51
2022-09-27T03:49:46.154Z,9.48
2022-09-27T03:52:14.412Z,9.34
2022-09-27T03:54:44.149Z,9.28
2022-09-27T03:57:12.892Z,9.53
2022-09-27T03:59:41.191Z,9.58
2022-09-27T04:02:09.519Z,9.47
2022-09-27T04:04:38.118Z,9.40
2022-09-27T04:07:06.417Z,9.49
2022-09-27T04:09:34.659Z,9.43
2022-09-27T04:12:04.599Z,9.62
2022-09-27T04:14:33.767Z,9.35
2022-09-27T04:17:02.373Z,9.43
2022-09-27T04:19:30.762Z,9.47
2022-09-27T04:21:59.032Z,9.29
2022-09-27T04:24:27.549Z,9.30
2022-09-27T04:26:57.055Z,9.55
2022-09-27T04:29:27.072Z,9.52
2022-09-27T04:31:55.362Z,9.65
2022-09-27T04:34:46.017Z,9.60
2022-09-27T04:37:14.605Z,9.63
2022-09-27T04:39:43.138Z,9.59
2022-09-27T04:42:11.658Z,9.51
2022-09-27T04:44:41.315Z,9.46
2022-09-27T04:47:10.997Z,9.63
2022-09-27T04:49:39.871Z,9.47
2022-09-27T04:52:08.154Z,9.58
2022-09-27T04:54:36.671Z,9.55
2022-09-27T04:57:05.433Z,9.56
2022-09-27T04:59:33.701Z,9.69
2022-09-27T05:02:03.693Z,9.61
2022-09-27T05:04:32.085Z,9.59
2022-09-27T05:07:00.340Z,9.58
2022-09-27T05:09:31.007Z,9.59
2022-09-27T05:11:59.769Z,9.59
2022-09-27T05:14:29.043Z,9.66
2022-09-27T05:16:58.338Z,9.52
2022-09-27T05:19:28.122Z,9.48
2022-09-27T05:21:56.457Z,9.60
2022-09-27T05:24:24.707Z,9.57
2022-09-27T05:26:53.652Z,9.63
2022-09-27T05:29:22.145Z,9.63
2022-09-27T05:31:51.096Z,9.64
2022-09-27T05:34:21.503Z,9.64
2022-09-27T05:36:51.162Z,9.68
2022-09-27T05:39:20.083Z,9.63
2022-09-27T05:44:40.498Z,9.67
2022-09-27T05:47:13.280Z,9.56
2022-09-27T05:49:41.774Z,9.51
2022-09-27T05:52:15.070Z,9.65
2022-09-27T05:54:45.674Z,9.59
2022-09-27T05:57:13.956Z,9.64
2022-09-27T05:59:43.839Z,9.68
2022-09-27T06:02:14.043Z,9.61
2022-09-27T06:04:43.323Z,9.58
2022-09-27T06:07:13.202Z,9.54
2022-09-27T06:09:57.677Z,9.50
2022-09-27T06:12:31.887Z,9.56
2022-09-27T06:15:00.349Z,9.35
2022-09-27T06:17:29.075Z,9.72
2022-09-27T06:19:57.991Z,9.73
2022-09-27T06:22:28.295Z,9.44
2022-09-27T06:24:57.222Z,9.43
2022-09-27T06:27:28.835Z,9.39
2022-09-27T06:29:59.089Z,9.58
2022-09-27T06:32:28.142Z,9.60
2022-09-27T06:34:56.681Z,9.50
2022-09-27T06:37:28.128Z,9.55
2022-09-27T06:39:56.656Z,9.62
2022-09-27T06:42:25.043Z,9.59
2022-09-27T06:44:54.601Z,9.65
2022-09-27T06:47:23.953Z,9.70
2022-09-27T06:49:52.670Z,9.61
2022-09-27T06:52:21.189Z,9.79
2022-09-27T06:54:50.852Z,9.77
2022-09-27T06:57:39.333Z,9.88
2022-09-27T07:00:22.022Z,9.83
2022-09-27T07:02:50.719Z,9.94
2022-09-27T07:05:19.397Z,9.96
2022-09-27T07:07:48.759Z,9.77
2022-09-27T07:10:18.721Z,9.81
2022-09-27T07:12:48.930Z,9.77
2022-09-27T07:15:17.581Z,10.02
2022-09-27T07:17:46.113Z,9.92
2022-09-27T07:20:14.824Z,9.95
2022-09-27T07:22:44.360Z,9.86
2022-09-27T07:25:12.710Z,9.90
2022-09-27T07:27:42.553Z,9.76
2022-09-27T07:30:12.121Z,9.62
2022-09-27T07:32:40.407Z,9.72
2022-09-27T07:35:09.666Z,9.67
2022-09-27T07:37:38.532Z,9.51
2022-09-27T07:40:10.011Z,9.57
2022-09-27T07:42:57.618Z,9.74
2022-09-27T07:45:27.433Z,9.72
2022-09-27T07:48:14.652Z,9.84
2022-09-27T07:50:42.996Z,9.69
2022-09-27T07:53:15.774Z,9.92
2022-09-27T07:55:46.448Z,9.84
2022-09-27T07:58:14.920Z,9.78
2022-09-27T08:00:49.486Z,9.75
2022-09-27T08:03:21.592Z,9.92
2022-09-27T08:05:50.165Z,9.95
2022-09-27T08:08:18.512Z,9.99
2022-09-27T08:10:47.302Z,10.05
2022-09-27T08:13:21.009Z,10.24
2022-09-27T08:15:52.757Z,10.13
2022-09-27T08:18:26.645Z,10.30
2022-09-27T08:21:03.404Z,10.29
2022-09-27T08:23:33.086Z,10.28
2022-09-27T08:26:01.340Z,10.36
2022-09-27T08:28:29.932Z,10.29
2022-09-27T08:31:02.362Z,10.35
2022-09-27T08:33:33.492Z,10.44
2022-09-27T08:36:03.709Z,10.36
2022-09-27T08:38:32.436Z,10.30
2022-09-27T08:41:02.979Z,10.35
2022-09-27T08:43:37.473Z,10.19
2022-09-27T08:46:19.084Z,10.10
2022-09-27T08:48:47.791Z,10.33
2022-09-27T08:51:16.039Z,10.35
2022-09-27T08:53:47.399Z,10.46
2022-09-27T08:56:15.694Z,10.40
2022-09-27T08:58:46.673Z,10.26
2022-09-27T09:01:17.242Z,10.42
2022-09-27T09:03:50.144Z,10.36
2022-09-27T09:06:24.424Z,10.28
2022-09-27T09:09:02.394Z,10.55
2022-09-27T09:11:50.349Z,10.50
2022-09-27T09:14:27.353Z,10.58
2022-09-27T09:17:01.905Z,10.43
2022-09-27T09:19:40.814Z,10.56
2022-09-27T09:22:16.634Z,10.52
2022-09-27T09:24:51.536Z,10.41
2022-09-27T09:27:22.754Z,10.53
2022-09-27T09:30:01.581Z,10.76
2022-09-27T09:32:35.747Z,10.61
2022-09-27T09:35:05.002Z,10.65
2022-09-27T09:37:37.891Z,10.52
2022-09-27T09:40:09.391Z,10.46
2022-09-27T09:42:40.379Z,10.70
2022-09-27T09:45:16.326Z,10.75
2022-09-27T09:47:47.327Z,10.52
2022-09-27T09:50:18.337Z,10.55
2022-09-27T09:52:49.372Z,10.41
2022-09-27T09:55:20.538Z,10.72
2022-09-27T09:57:56.549Z,10.49
2022-09-27T10:00:25.227Z,10.97
2022-09-27T10:02:55.791Z,10.95
2022-09-27T10:05:24.663Z,10.91
2022-09-27T10:07:54.187Z,10.92
2022-09-27T10:10:22.646Z,11.08
2022-09-27T10:12:50.957Z,11.19
2022-09-27T10:15:20.179Z,11.15
2022-09-27T10:17:51.691Z,11.26
2022-09-27T10:20:28.505Z,11.44
2022-09-27T10:22:58.915Z,11.51
2022-09-27T10:25:28.039Z,11.43
2022-09-27T10:27:56.922Z,11.48
2022-09-27T10:30:28.475Z,11.22
2022-09-27T10:32:58.234Z,11.28
2022-09-27T10:35:38.146Z,11.07
2022-09-27T10:38:22.997Z,11.24
2022-09-27T10:40:53.499Z,11.09
2022-09-27T10:43:29.680Z,11.25
2022-09-27T10:46:08.524Z,11.31
2022-09-27T10:48:36.916Z,11.42
2022-09-27T10:51:07.401Z,11.59
2022-09-27T10:53:37.902Z,11.62
2022-09-27T10:56:06.425Z,11.72
2022-09-27T10:58:35.976Z,11.89
2022-09-27T11:01:05.670Z,11.77
2022-09-27T11:03:39.709Z,11.93
2022-09-27T11:06:26.253Z,11.90
2022-09-27T11:08:55.116Z,12.26
2022-09-27T11:14:38.067Z,11.47
2022-09-27T11:17:14.709Z,11.56
2022-09-27T11:19:55.627Z,11.44
2022-09-27T11:22:35.844Z,11.44
2022-09-27T11:25:13.025Z,11.71
2022-09-27T11:27:47.487Z,11.82
2022-09-27T11:30:16.458Z,11.86
2022-09-27T11:32:55.485Z,11.93
2022-09-27T11:35:32.766Z,12.20
2022-09-27T11:38:10.435Z,12.29
2022-09-27T11:43:51.669Z,12.07
2022-09-27T11:46:30.976Z,12.19
2022-09-27T11:49:12.204Z,12.01
2022-09-27T11:51:49.137Z,11.79
2022-09-27T11:54:27.281Z,11.90
2022-09-27T11:56:58.641Z,11.82
2022-09-27T11:59:37.779Z,11.79
2022-09-27T12:02:11.969Z,11.79
2022-09-27T12:04:48.742Z,11.88
2022-09-27T12:07:19.486Z,11.88
2022-09-27T12:09:51.402Z,12.01
2022-09-27T12:12:20.515Z,11.92
2022-09-27T12:14:50.261Z,11.59
2022-09-27T12:17:19.985Z,11.86
2022-09-27T12:19:51.038Z,11.85
2022-09-27T12:22:40.239Z,11.68
2022-09-27T12:25:18.296Z,11.74
2022-09-27T12:27:50.963Z,11.79
2022-09-27T12:30:19.465Z,11.89
2022-09-27T12:32:54.447Z,11.83
2022-09-27T12:35:24.024Z,11.94
2022-09-27T12:37:54.006Z,11.85
2022-09-27T12:40:25.153Z,11.79
2022-09-27T12:42:56.078Z,11.78
2022-09-27T12:45:29.540Z,11.92
2022-09-27T12:48:04.101Z,11.99
2022-09-27T12:50:37.032Z,12.00
2022-09-27T12:53:06.940Z,11.99
2022-09-27T12:55:52.522Z,12.00
2022-09-27T12:58:56.837Z,12.04
2022-09-27T13:01:33.918Z,12.23
2022-09-27T13:04:11.617Z,12.31
2022-09-27T13:06:48.816Z,12.08
2022-09-27T13:09:30.800Z,12.11
2022-09-27T13:12:03.680Z,11.91
2022-09-27T13:14:34.659Z,11.96
2022-09-27T13:17:02.990Z,11.78
2022-09-27T13:19:43.305Z,11.51
2022-09-27T13:22:22.885Z,11.63
2022-09-27T13:27:56.210Z,11.60
2022-09-27T13:30:47.371Z,11.29
2022-09-27T13:33:33.787Z,11.64
2022-09-27T13:36:08.727Z,11.51
2022-09-27T13:39:34.452Z,11.58
2022-09-27T13:42:10.933Z,11.43
2022-09-27T13:44:47.448Z,11.36
2022-09-27T13:47:26.236Z,11.34
2022-09-27T13:49:55.885Z,11.06
2022-09-27T13:52:27.677Z,10.86
2022-09-27T13:54:58.780Z,10.94
2022-09-27T13:57:46.689Z,11.05
2022-09-27T14:00:18.544Z,11.15
2022-09-27T14:05:57.793Z,11.25
2022-09-27T14:08:30.095Z,11.12
2022-09-27T14:10:58.628Z,11.24
2022-09-27T14:13:27.260Z,11.28
2022-09-27T14:15:57.009Z,11.45
2022-09-27T14:18:25.334Z,11.47
2022-09-27T14:20:54.248Z,11.42
2022-09-27T14:23:23.241Z,11.51
2022-09-27T14:25:52.842Z,11.44
2022-09-27T14:28:22.942Z,11.61
2022-09-27T14:33:45.219Z,11.46
2022-09-27T14:36:35.869Z,11.47
2022-09-27T14:39:04.292Z,11.44
2022-09-27T14:41:37.373Z,11.50
2022-09-27T14:44:28.032Z,11.52
2022-09-27T14:47:10.612Z,11.34
2022-09-27T14:49:47.494Z,11.40
2022-09-27T14:52:19.076Z,11.50
2022-09-27T14:54:56.179Z,11.49
2022-09-27T14:57:24.704Z,11.31
2022-09-27T14:59:53.574Z,11.43
2022-09-27T15:02:23.904Z,11.61
2022-09-27T15:04:55.202Z,11.53
2022-09-27T15:07:23.563Z,11.55
2022-09-27T15:09:52.738Z,11.42
2022-09-27T15:12:26.579Z,11.32
2022-09-27T15:14:58.344Z,11.46
2022-09-27T15:17:26.779Z,11.51
2022-09-27T15:20:00.781Z,11.41
2022-09-27T15:22:35.612Z,11.39
2022-09-27T15:25:09.394Z,11.46
2022-09-27T15:27:38.881Z,11.28
2022-09-27T15:30:08.160Z,11.34
2022-09-27T15:32:36.402Z,11.39
2022-09-27T15:35:09.717Z,11.49
2022-09-27T15:37:38.821Z,11.18
2022-09-27T15:40:33.454Z,11.27
2022-09-27T15:43:02.800Z,11.30
2022-09-27T15:45:31.303Z,11.18
2022-09-27T15:48:07.084Z,11.08
2022-09-27T15:50:38.991Z,10.80
2022-09-27T15:53:40.488Z,10.70
2022-09-27T15:56:08.714Z,10.96
2022-09-27T15:58:37.474Z,10.86
2022-09-27T16:01:06.769Z,10.96
2022-09-27T16:03:35.696Z,10.82
2022-09-27T16:06:05.550Z,10.90
2022-09-27T16:08:33.743Z,10.90
2022-09-27T16:11:20.549Z,10.81
2022-09-27T16:13:50.416Z,10.73
2022-09-27T16:16:19.868Z,10.65
2022-09-27T16:18:48.152Z,10.71
2022-09-27T16:21:17.795Z,10.64
2022-09-27T16:23:46.047Z,10.54
2022-09-27T16:26:14.347Z,10.47
2022-09-27T16:28:43.282Z,10.49
2022-09-27T16:31:12.370Z,10.62
2022-09-27T16:33:40.686Z,10.64
2022-09-27T16:36:14.838Z,10.56
2022-09-27T16:38:44.614Z,10.58
2022-09-27T16:41:12.835Z,10.52
2022-09-27T16:43:41.153Z,10.55
2022-09-27T16:46:13.223Z,10.59
2022-09-27T16:48:41.518Z,10.60
2022-09-27T16:51:42.388Z,10.55
2022-09-27T16:54:12.592Z,10.34
2022-09-27T16:56:40.905Z,10.64
2022-09-27T16:59:09.270Z,10.48
2022-09-27T17:01:37.673Z,10.53
2022-09-27T17:04:07.269Z,10.66
2022-09-27T17:06:35.529Z,10.52
2022-09-27T17:09:22.491Z,10.60
2022-09-27T17:11:52.366Z,10.24
2022-09-27T17:14:21.075Z,10.25
2022-09-27T17:16:49.612Z,10.10
2022-09-27T17:19:18.520Z,9.97
2022-09-27T17:21:47.200Z,10.02
2022-09-27T17:24:15.563Z,9.92
2022-09-27T17:26:43.846Z,9.88
2022-09-27T17:29:14.015Z,10.03
2022-09-27T17:32:00.135Z,9.88
2022-09-27T17:34:28.865Z,9.80
2022-09-27T17:36:57.903Z,9.83
2022-09-27T17:39:30.441Z,9.77
2022-09-27T17:42:05.286Z,9.75
2022-09-27T17:44:39.235Z,9.58
2022-09-27T17:47:39.811Z,9.80
2022-09-27T17:50:22.091Z,9.65
2022-09-27T17:52:50.407Z,9.44
2022-09-27T17:55:18.876Z,9.33
2022-09-27T17:57:48.342Z,9.54
2022-09-27T18:00:18.124Z,9.34
2022-09-27T18:02:54.461Z,9.43
2022-09-27T18:05:43.219Z,9.27
2022-09-27T18:08:11.449Z,9.23
2022-09-27T18:10:40.476Z,9.37
2022-09-27T18:13:08.734Z,9.24
2022-09-27T18:15:40.044Z,9.17
2022-09-27T18:18:11.493Z,9.19
2022-09-27T18:20:39.800Z,9.19
2022-09-27T18:23:08.066Z,9.21
2022-09-27T18:25:39.264Z,9.16
2022-09-27T18:28:07.560Z,9.13
2022-09-27T18:30:38.520Z,9.19
2022-09-27T18:33:25.320Z,9.05
2022-09-27T18:35:53.748Z,9.22
2022-09-27T18:38:22.287Z,9.02
2022-09-27T18:40:56.603Z,9.16
2022-09-27T18:43:25.810Z,9.06
2022-09-27T18:45:55.388Z,9.16
2022-09-27T18:48:23.677Z,8.90
2022-09-27T18:50:52.280Z,8.89
2022-09-27T18:53:45.445Z,8.96
2022-09-27T18:56:14.842Z,8.93
2022-09-27T18:58:43.552Z,8.96
2022-09-27T19:01:14.464Z,8.92
2022-09-27T19:03:43.013Z,8.98
2022-09-27T19:06:13.803Z,8.99
2022-09-27T19:08:42.245Z,8.95
2022-09-27T19:11:11.856Z,8.96
2022-09-27T19:13:50.204Z,8.87
2022-09-27T19:16:22.584Z,8.95
2022-09-27T19:18:51.062Z,8.75
2022-09-27T19:21:20.886Z,8.86
2022-09-27T19:23:50.141Z,8.94
2022-09-27T19:26:19.187Z,8.83
2022-09-27T19:28:47.810Z,8.82
2022-09-27T19:31:16.903Z,8.72
2022-09-27T19:33:46.562Z,8.77
2022-09-27T19:36:15.844Z,8.69
2022-09-27T19:38:44.670Z,8.70
2022-09-27T19:41:31.679Z,8.53
2022-09-27T19:43:59.901Z,8.72
2022-09-27T19:46:28.254Z,8.54
2022-09-27T19:48:58.033Z,8.58
2022-09-27T19:51:27.615Z,8.48
2022-09-27T19:53:55.860Z,8.40
2022-09-27T19:56:25.022Z,8.36
2022-09-27T19:58:54.407Z,8.40
2022-09-27T20:01:23.365Z,8.36
2022-09-27T20:03:52.925Z,8.28
2022-09-27T20:06:23.055Z,8.31
2022-09-27T20:08:51.810Z,8.28
2022-09-27T20:11:20.674Z,8.41
2022-09-27T20:13:50.201Z,8.36
2022-09-27T20:16:20.192Z,8.33
2022-09-27T20:18:49.451Z,8.34
2022-09-27T20:21:18.134Z,8.36
2022-09-27T20:23:49.420Z,8.31
2022-09-27T20:26:18.918Z,8.45
2022-09-27T20:29:05.670Z,8.31
2022-09-27T20:31:36.967Z,8.36
2022-09-27T20:34:05.328Z,8.33
2022-09-27T20:36:36.612Z,8.48
2022-09-27T20:39:07.828Z,8.49
2022-09-27T20:44:22.649Z,8.72
2022-09-27T20:46:50.992Z,8.42
2022-09-27T20:49:19.755Z,8.49
2022-09-27T20:51:49.632Z,8.46
2022-09-27T20:54:19.302Z,8.56
2022-09-27T20:56:48.243Z,8.67
2022-09-27T20:59:18.151Z,8.77
2022-09-27T21:01:47.716Z,8.71
2022-09-27T21:04:17.038Z,8.66
2022-09-27T21:06:46.078Z,8.85
2022-09-27T21:09:19.123Z,8.73
2022-09-27T21:11:49.115Z,8.64
2022-09-27T21:14:17.472Z,8.76
2022-09-27T21:16:46.023Z,8.79
2022-09-27T21:19:14.818Z,8.59
2022-09-27T21:21:43.117Z,8.58
2022-09-27T21:24:11.375Z,8.52
2022-09-27T21:26:39.604Z,8.75
2022-09-27T21:29:10.423Z,8.75
2022-09-27T21:31:38.986Z,8.55
2022-09-27T21:34:07.415Z,8.74
2022-09-27T21:36:36.815Z,8.68
2022-09-27T21:39:05.464Z,8.82
2022-09-27T21:41:33.835Z,8.83
2022-09-27T21:44:04.214Z,8.84
2022-09-27T21:46:33.962Z,8.75
2022-09-27T21:49:21.047Z,8.91
2022-09-27T21:51:49.965Z,8.89
2022-09-27T21:54:18.985Z,8.87
2022-09-27T21:56:47.809Z,8.86
2022-09-27T21:59:18.622Z,8.76
2022-09-27T22:01:49.198Z,9.06
2022-09-27T22:04:18.241Z,8.93
2022-09-27T22:06:46.989Z,9.00
2022-09-27T22:09:17.101Z,8.94
2022-09-27T22:11:47.912Z,8.90
2022-09-27T22:14:17.180Z,8.87
2022-09-27T22:16:45.694Z,8.93
2022-09-27T22:19:15.866Z,9.14
2022-09-27T22:21:44.286Z,9.18
2022-09-27T22:24:13.858Z,9.06
2022-09-27T22:26:42.740Z,8.97
2022-09-27T22:29:11.264Z,8.87
2022-09-27T22:31:57.938Z,8.99
2022-09-27T22:34:31.302Z,8.93
2022-09-27T22:37:01.010Z,8.92
2022-09-27T22:39:29.500Z,8.81
2022-09-27T22:41:58.026Z,8.84
2022-09-27T22:44:26.242Z,8.91
2022-09-27T22:46:54.536Z,9.00
2022-09-27T22:49:23.005Z,8.83
2022-09-27T22:51:52.905Z,9.16
2022-09-27T22:54:21.321Z,9.08
2022-09-27T22:56:57.395Z,9.02
2022-09-27T22:59:26.164Z,9.14
2022-09-27T23:01:54.458Z,8.94
2022-09-27T23:04:22.730Z,8.97
2022-09-27T23:06:52.373Z,8.85
2022-09-27T23:09:20.615Z,8.72
2022-09-27T23:11:48.866Z,8.65
2022-09-27T23:14:17.460Z,8.80
2022-09-27T23:16:45.974Z,8.69
2022-09-27T23:19:15.346Z,8.72
2022-09-27T23:21:43.596Z,8.71
2022-09-27T23:24:13.236Z,8.87
2022-09-27T23:26:41.741Z,8.94
2022-09-27T23:29:11.285Z,8.73
2022-09-27T23:31:39.606Z,8.78
2022-09-27T23:34:07.953Z,8.68
2022-09-27T23:36:36.749Z,8.74
2022-09-27T23:39:05.025Z,8.93
2022-09-27T23:41:52.940Z,8.95
2022-09-27T23:44:21.330Z,8.84
2022-09-27T23:46:49.684Z,8.87
2022-09-27T23:49:18.015Z,8.93
2022-09-27T23:51:46.400Z,8.90
2022-09-27T23:54:14.629Z,8.93
2022-09-27T23:56:44.485Z,9.12
2022-09-27T23:59:13.047Z,9.03
